createdAt,value
2023-03-20T00:01:33.831Z,37.20
2023-03-20T00:06:32.300Z,34.65
2023-03-20T00:11:29.729Z,35.33
2023-03-20T00:16:24.865Z,33.45
2023-03-20T00:21:21.428Z,34.45
2023-03-20T00:26:17.062Z,33.65
2023-03-20T00:31:25.344Z,33.85
2023-03-20T00:36:18.686Z,33.58
2023-03-20T00:41:33.966Z,33.15
2023-03-20T00:46:27.543Z,32.50
2023-03-20T00:51:20.792Z,34.40
2023-03-20T00:56:31.384Z,36.85
2023-03-20T01:01:24.646Z,35.88
2023-03-20T01:06:19.091Z,35.72
2023-03-20T01:11:14.724Z,36.38
2023-03-20T01:16:42.094Z,34.85
2023-03-20T01:21:36.142Z,37.33
2023-03-20T01:26:40.435Z,35.67
2023-03-20T01:31:33.151Z,35.17
2023-03-20T01:36:27.085Z,34.42
2023-03-20T01:41:21.189Z,35.45
2023-03-20T01:46:32.149Z,34.40
2023-03-20T01:51:38.249Z,37.08
2023-03-20T01:56:55.525Z,35.10
2023-03-20T02:01:48.997Z,35.17
2023-03-20T02:06:45.589Z,37.08
2023-03-20T02:11:43.301Z,36.63
2023-03-20T02:16:36.708Z,37.78
2023-03-20T02:22:06.316Z,37.45
2023-03-20T02:27:12.084Z,40.40
2023-03-20T02:32:32.245Z,39.22
2023-03-20T02:37:39.566Z,40.00
2023-03-20T02:42:46.545Z,41.60
2023-03-20T02:47:47.570Z,41.20
2023-03-20T02:52:51.528Z,40.92
2023-03-20T02:57:51.913Z,42.45
2023-03-20T03:03:03.037Z,37.80
2023-03-20T03:07:58.380Z,38.83
2023-03-20T03:12:52.664Z,38.13
2023-03-20T03:17:48.260Z,38.67
2023-03-20T03:22:41.206Z,34.63
2023-03-20T03:27:41.598Z,33.72
2023-03-20T03:32:38.067Z,36.00
2023-03-20T03:37:54.281Z,36.75
2023-03-20T03:42:53.688Z,34.67
2023-03-20T03:53:03.401Z,37.30
2023-03-20T03:58:02.888Z,35.50
2023-03-20T04:07:54.769Z,33.08
2023-03-20T04:12:48.821Z,33.80
2023-03-20T04:17:42.249Z,34.10
2023-03-20T04:22:36.357Z,34.75
2023-03-20T04:27:33.135Z,34.15
2023-03-20T04:32:26.606Z,33.08
2023-03-20T04:37:36.669Z,33.45
2023-03-20T04:42:32.227Z,37.22
2023-03-20T04:47:29.075Z,36.00
2023-03-20T04:52:22.239Z,33.20
2023-03-20T04:57:15.961Z,35.60
2023-03-20T05:02:09.926Z,34.38
2023-03-20T05:07:03.048Z,31.73
2023-03-20T05:12:07.239Z,26.92
2023-03-20T05:17:25.224Z,25.33
2023-03-20T05:22:41.777Z,23.65
2023-03-20T05:27:46.464Z,24.95
2023-03-20T05:32:57.236Z,23.50
2023-03-20T05:37:52.858Z,27.48
2023-03-20T05:42:57.110Z,25.27
2023-03-20T05:48:14.644Z,24.10
2023-03-20T05:53:08.129Z,23.70
2023-03-20T05:58:23.021Z,24.05
2023-03-20T06:03:52.095Z,24.83
2023-03-20T06:09:05.662Z,23.50
2023-03-20T06:14:00.650Z,23.55
2023-03-20T06:19:02.605Z,25.15
2023-03-20T06:23:56.057Z,23.15
2023-03-20T06:28:49.832Z,22.70
2023-03-20T06:33:44.908Z,26.15
2023-03-20T06:38:38.344Z,26.25
2023-03-20T06:43:37.896Z,25.42
2023-03-20T06:48:32.081Z,25.52
2023-03-20T06:53:27.532Z,24.38
2023-03-20T06:58:30.726Z,23.40
2023-03-20T07:03:24.143Z,24.98
2023-03-20T07:08:18.868Z,25.20
2023-03-20T07:13:22.320Z,23.60
2023-03-20T07:18:16.568Z,24.60
2023-03-20T07:23:10.158Z,24.88
2023-03-20T07:28:03.306Z,24.15
2023-03-20T07:32:58.973Z,26.70
2023-03-20T07:37:58.058Z,23.23
2023-03-20T07:42:53.510Z,25.60
2023-03-20T07:48:04.327Z,23.27
2023-03-20T07:52:59.454Z,23.50
2023-03-20T07:57:52.835Z,21.60
2023-03-20T08:02:46.447Z,24.33
2023-03-20T08:07:39.848Z,23.30
2023-03-20T08:12:34.404Z,25.25
2023-03-20T08:17:28.794Z,21.13
2023-03-20T08:22:22.562Z,20.13
2023-03-20T08:27:15.794Z,19.65
2023-03-20T08:32:08.902Z,22.33
2023-03-20T08:37:05.593Z,25.50
2023-03-20T08:42:00.967Z,26.48
2023-03-20T08:46:55.159Z,27.80
2023-03-20T08:51:48.874Z,29.85
2023-03-20T08:56:41.344Z,30.98
2023-03-20T09:01:48.262Z,29.42
2023-03-20T09:06:42.324Z,28.80
2023-03-20T09:11:36.485Z,30.20
2023-03-20T09:16:30.012Z,31.00
2023-03-20T09:21:23.319Z,27.33
2023-03-20T09:26:17.735Z,28.90
2023-03-20T09:31:12.402Z,25.23
2023-03-20T09:36:08.842Z,23.20
2023-03-20T09:41:02.419Z,27.23
2023-03-20T09:46:13.830Z,26.60
2023-03-20T09:51:29.262Z,26.38
2023-03-20T09:56:25.484Z,24.17
2023-03-20T10:01:19.856Z,23.75
2023-03-20T10:06:18.472Z,21.50
2023-03-20T10:11:32.654Z,23.02
2023-03-20T10:17:04.499Z,22.13
2023-03-20T10:22:31.462Z,22.42
2023-03-20T10:27:35.171Z,22.67
2023-03-20T10:32:39.489Z,23.90
2023-03-20T10:37:47.074Z,23.73
2023-03-20T10:42:42.407Z,23.50
2023-03-20T10:47:38.484Z,22.95
2023-03-20T10:52:36.992Z,24.42
2023-03-20T10:57:32.870Z,25.63
2023-03-20T11:02:30.318Z,23.60
2023-03-20T11:07:36.740Z,25.80
2023-03-20T11:12:33.781Z,27.65
2023-03-20T11:17:30.143Z,27.25
2023-03-20T11:22:26.235Z,28.13
2023-03-20T11:27:50.822Z,28.13
2023-03-20T11:33:03.913Z,29.38
2023-03-20T11:38:10.387Z,26.80
2023-03-20T11:43:03.018Z,27.33
2023-03-20T11:47:58.132Z,25.90
2023-03-20T11:52:50.537Z,25.67
2023-03-20T11:57:42.836Z,24.38
2023-03-20T12:02:36.983Z,23.42
2023-03-20T12:07:38.107Z,22.58
2023-03-20T12:12:41.867Z,24.63
2023-03-20T12:17:46.924Z,24.42
2023-03-20T12:22:58.534Z,24.52
2023-03-20T12:28:29.259Z,26.23
2023-03-20T12:33:34.418Z,30.02
2023-03-20T12:38:35.015Z,25.83
2023-03-20T12:43:31.706Z,26.83
2023-03-20T12:48:48.421Z,25.48
2023-03-20T12:53:46.515Z,27.52
2023-03-20T12:58:43.336Z,27.47
2023-03-20T13:04:12.947Z,28.20
2023-03-20T13:09:14.316Z,28.00
2023-03-20T13:14:35.726Z,27.88
2023-03-20T13:19:37.682Z,29.27
2023-03-20T13:24:41.240Z,30.83
2023-03-20T13:29:58.841Z,29.58
2023-03-20T13:35:09.830Z,30.13
2023-03-20T13:40:30.893Z,30.55
2023-03-20T13:45:42.047Z,31.50
2023-03-20T13:50:41.520Z,30.17
2023-03-20T13:56:31.763Z,27.13
2023-03-20T14:01:35.242Z,26.55
2023-03-20T14:06:28.446Z,25.35
2023-03-20T14:11:32.556Z,29.02
2023-03-20T14:16:28.811Z,25.08
2023-03-20T14:21:24.369Z,22.77
2023-03-20T14:26:24.458Z,24.23
2023-03-20T14:31:38.602Z,21.23
2023-03-20T14:37:04.709Z,22.52
2023-03-20T14:42:18.621Z,23.27
2023-03-20T14:47:29.629Z,26.27
2023-03-20T14:53:07.306Z,22.92
2023-03-20T14:58:05.533Z,22.73
2023-03-20T15:03:10.792Z,25.27
2023-03-20T15:08:09.127Z,24.25
2023-03-20T15:13:04.863Z,71.30
2023-03-20T15:18:05.957Z,28.38
2023-03-20T15:23:03.728Z,25.35
2023-03-20T15:27:57.218Z,22.23
2023-03-20T15:32:50.914Z,24.90
2023-03-20T15:37:45.320Z,20.92
2023-03-20T15:42:39.051Z,20.95
2023-03-20T15:47:33.161Z,23.17
2023-03-20T15:52:33.680Z,22.83
2023-03-20T15:57:33.636Z,20.60
2023-03-20T16:02:31.589Z,21.55
2023-03-20T16:07:45.395Z,23.30
2023-03-20T16:12:38.416Z,22.02
2023-03-20T16:17:31.387Z,22.20
2023-03-20T16:22:48.027Z,19.23
2023-03-20T16:27:41.304Z,19.73
2023-03-20T16:32:42.759Z,18.95
2023-03-20T16:37:44.651Z,19.50
2023-03-20T16:42:38.662Z,18.52
2023-03-20T16:47:36.726Z,21.75
2023-03-20T16:52:31.556Z,20.60
2023-03-20T16:57:26.102Z,22.98
2023-03-20T17:02:40.923Z,23.00
2023-03-20T17:07:34.095Z,19.23
2023-03-20T17:12:31.400Z,25.73
2023-03-20T17:17:25.627Z,24.20
2023-03-20T17:22:22.135Z,22.95
2023-03-20T17:27:16.097Z,21.33
2023-03-20T17:32:17.674Z,20.85
2023-03-20T17:37:30.508Z,22.33
2023-03-20T17:42:31.194Z,24.35
2023-03-20T17:47:26.170Z,28.38
2023-03-20T17:52:22.076Z,30.20
2023-03-20T17:57:34.516Z,33.20
2023-03-20T18:02:27.968Z,35.50
2023-03-20T18:07:21.252Z,33.83
2023-03-20T18:12:17.183Z,37.25
2023-03-20T18:17:13.671Z,34.90
2023-03-20T18:22:07.126Z,39.40
2023-03-20T18:27:00.438Z,39.22
2023-03-20T18:31:54.111Z,38.28
2023-03-20T18:36:46.592Z,38.40
2023-03-20T18:41:40.229Z,36.70
2023-03-20T18:46:34.259Z,34.78
2023-03-20T18:51:27.748Z,34.33
2023-03-20T18:56:24.001Z,34.63
2023-03-20T19:01:18.094Z,36.80
2023-03-20T19:06:18.097Z,35.25
2023-03-20T19:11:15.645Z,39.45
2023-03-20T19:16:18.871Z,45.10
2023-03-20T19:21:11.927Z,47.55
2023-03-20T19:26:05.953Z,45.50
2023-03-20T19:30:59.114Z,53.33
2023-03-20T19:36:02.730Z,50.90
2023-03-20T19:41:05.487Z,57.38
2023-03-20T19:45:59.580Z,48.65
2023-03-20T19:50:58.041Z,42.15
2023-03-20T19:55:51.503Z,41.90
2023-03-20T20:00:57.240Z,41.05
2023-03-20T20:05:52.014Z,38.08
2023-03-20T20:10:51.014Z,37.85
2023-03-20T20:15:45.653Z,34.78
2023-03-20T20:21:07.629Z,36.30
2023-03-20T20:25:53.134Z,37.40
2023-03-20T20:30:55.591Z,38.00
2023-03-20T20:36:20.453Z,42.78
2023-03-20T20:41:02.484Z,51.85
2023-03-20T20:45:56.228Z,40.15
2023-03-20T20:50:50.951Z,39.15
2023-03-20T20:55:44.147Z,38.60
2023-03-20T21:00:50.606Z,36.45
2023-03-20T21:05:44.657Z,40.25
2023-03-20T21:10:38.558Z,44.92
2023-03-20T21:15:31.685Z,44.75
2023-03-20T21:20:25.799Z,46.95
2023-03-20T21:25:36.297Z,48.33
2023-03-20T21:30:33.533Z,44.95
2023-03-20T21:35:27.266Z,34.47
2023-03-20T21:40:21.626Z,31.38
2023-03-20T21:50:57.155Z,35.05
2023-03-20T21:56:39.404Z,35.17
2023-03-20T22:12:02.392Z,33.75
2023-03-20T22:17:38.676Z,32.45
2023-03-20T22:23:00.417Z,31.00
2023-03-20T22:43:59.708Z,31.08
2023-03-20T22:48:16.471Z,31.42
2023-03-20T22:53:12.005Z,28.30
2023-03-20T22:58:08.491Z,28.77
2023-03-20T23:03:15.619Z,26.25
2023-03-20T23:08:15.268Z,28.15
2023-03-20T23:13:10.157Z,28.73
2023-03-20T23:18:04.645Z,27.55
2023-03-20T23:22:59.422Z,27.55
2023-03-20T23:27:57.933Z,27.35
2023-03-20T23:32:51.199Z,28.55
2023-03-20T23:37:46.206Z,28.60
2023-03-20T23:42:43.085Z,30.98
2023-03-20T23:47:44.469Z,28.88
2023-03-20T23:52:40.759Z,28.55
2023-03-20T23:57:38.790Z,26.05
